Saddle River, New Jersey
Current Conditions -  °F | °C
As of 8:51 AM on Thursday 18 Dec 2014 (Local Time) from KTEB Reporting Station
Clear Clear  
Wind Chill: 33°   Ceiling: Unl
Heat Index: 39°   Visibility: 10mi
Dew Point: 23°   Wind: 9mph
Humidity: 53%   Direction: 290°WNW
Pressure: 29.97"   Gusts: 21mph
Location:  41.03°N, 74.1°W
Report Text: KTEB 181351Z 29008G18KT 10SM CLR 04/M05 A2997 RMK AO2 SLP150 T00391050
Loading
Personal Weather Stations






























Interactive Weather Map New forecast layout! Learn more

10-Day Weather Forecast

Advertisements
Track Severe Weather on mobile